< Cyclone 200011 2000 Season Cyclone 200013 >
Cyclone 200012 (ROSITA)
General InformationTrack Information on Google MapsDetailed Wind InformationList of All Images || ResourceGoogle EarthGE AnimationAtom FeedGeoJSON
Detalied Best Track (Time Zone = UTC)
Year Month Day Hour Lat. Long. Pressure (hPa) Wind (kt) Class Image Chart
2000 4 14 04 -9.4 127.0 1006 0 0 Image --
2000 4 15 04 -11.9 122.0 1004 21 2 Image --
2000 4 15 10 -12.1 121.0 1004 21 2 Image --
2000 4 15 16 -12.2 120.0 1000 27 2 Image --
2000 4 15 22 -12.5 119.7 1000 27 2 Image --
2000 4 16 04 -12.8 119.6 1000 27 2 Image --
2000 4 16 10 -13.0 119.5 1000 27 2 Image --
2000 4 16 16 -13.2 119.5 1000 27 2 Image --
2000 4 16 22 -13.5 119.5 1000 27 2 Image --
2000 4 17 04 -13.9 119.5 1000 27 2 Image --
2000 4 17 10 -14.5 119.4 1000 27 2 Image --
2000 4 17 16 -15.1 119.3 1000 27 2 Image --
2000 4 17 22 -15.6 119.3 995 35 3 Image --
2000 4 18 04 -16.2 119.3 995 35 3 Image --
2000 4 18 10 -16.7 119.3 985 49 4 Image --
2000 4 18 16 -17.1 119.4 970 64 5 Image --
2000 4 18 22 -17.3 119.9 960 76 5 Image --
2000 4 19 04 -17.5 120.3 950 84 5 Image --
2000 4 19 07 -17.6 120.7 930 101 5 Image --
2000 4 19 10 -17.7 121.1 930 101 5 Image --
2000 4 19 13 -17.8 121.6 930 101 5 Image --
2000 4 19 16 -18.1 122.0 930 101 5 Image --
2000 4 19 19 -18.4 122.5 940 93 5 Image --
2000 4 19 22 -18.6 123.0 950 84 5 Image --
2000 4 20 01 -18.9 123.5 960 76 5 Image --
2000 4 20 10 -19.8 125.7 985 49 4 Image --
2000 4 20 13 -20.0 126.6 995 35 3 Image --
2000 4 20 16 -20.2 127.7 995 35 3 Image --
2000 4 20 22 -20.5 129.7 1000 27 2 Image --
< Cyclone 200011 2000 Season Cyclone 200013 >

Help